Time;durP1;ratioP1;P1;durP2;ratioP2;P2;SDS_P1;SDS_P2;PMS_P1;PMS_P2;Temp;Humidity;BMP_temperature;BMP_pressure;BME280_temperature;BME280_humidity;BME280_pressure;Samples;Min_cycle;Max_cycle;Signal;HPM_P1;HPM_P2
2022/01/09 00:01:59;;;;;;;;;;;;;;;17.09;45.42;98729.06;5083405;28;19958;-44
2022/01/09 00:04:24;;;;;;;;;;;;;;;17.08;45.40;98732.78;5066025;28;20584;-44
2022/01/09 00:06:50;;;;;;;;;;;;;;;17.07;45.36;98729.25;5065827;28;19919;-43
2022/01/09 00:09:16;;;;;;;;;;;;;;;17.06;45.35;98718.72;5084212;28;19912;-45
2022/01/09 00:11:41;;;;;;;;;;;;;;;17.06;45.35;98727.59;5084021;28;19917;-44
2022/01/09 00:14:06;;;;;;;;;;;;;;;17.05;45.48;98723.28;5083759;28;19942;-43
2022/01/09 00:16:32;;;;;;;;;;;;;;;17.04;45.26;98720.81;5084020;28;20400;-44
2022/01/09 00:18:57;;;;;;;;;;;;;;;17.04;45.51;98726.19;5083891;28;19912;-45
2022/01/09 00:21:22;;;;;;;;;;;;;;;17.03;45.27;98719.97;5083362;28;20011;-45
2022/01/09 00:23:47;;;;;;;;;;;;;;;17.03;45.27;98724.50;5083557;28;19916;-43
2022/01/09 00:26:12;;;;;;;;;;;;;;;17.02;45.52;98728.22;5083498;28;19954;-43
2022/01/09 00:28:38;;;;;;;;;;;;;;;17.02;45.27;98722.88;5084194;28;19976;-43
2022/01/09 00:31:03;;;;;;;;;;;;;;;17.02;45.38;98722.88;5083690;28;19912;-44
2022/01/09 00:33:28;;;;;;;;;;;;;;;17.00;45.38;98728.44;5083898;28;19916;-43
2022/01/09 00:35:53;;;;;;;;;;;;;;;17.01;45.44;98721.22;5081870;28;19923;-44
2022/01/09 00:38:18;;;;;;;;;;;;;;;17.01;45.44;98721.22;5083885;28;19922;-46
2022/01/09 00:40:44;;;;;;;;;;;;;;;16.99;45.41;98722.25;5083784;28;19919;-47
2022/01/09 00:43:09;;;;;;;;;;;;;;;16.98;45.41;98723.28;5083508;28;19923;-45
2022/01/09 00:45:35;;;;;;;;;;;;;;;16.99;45.38;98724.09;5083486;28;19912;-44
2022/01/09 00:48:00;;;;;;;;;;;;;;;16.98;45.57;98722.44;5083763;28;19913;-45
2022/01/09 00:50:26;;;;;;;;;;;;;;;16.98;45.46;98717.91;5082823;28;19923;-45
2022/01/09 00:52:51;;;;;;;;;;;;;;;16.96;45.35;98728.03;5083257;28;19912;-45
2022/01/09 00:55:18;;;;;;;;;;;;;;;16.97;45.43;98728.88;5082694;28;19960;-46
2022/01/09 00:57:43;;;;;;;;;;;;;;;16.96;45.34;98730.72;5083185;28;19919;-46
2022/01/09 01:00:09;;;;;;;;;;;;;;;16.92;45.50;98734.84;5083042;28;20161;-46
2022/01/09 01:02:34;;;;;;;;;;;;;;;16.93;45.52;98736.50;5065425;28;20365;-45
2022/01/09 01:04:59;;;;;;;;;;;;;;;16.93;45.37;98738.38;5082576;28;19934;-43
2022/01/09 01:07:24;;;;;;;;;;;;;;;16.93;45.42;98759.84;5083201;28;19912;-44
2022/01/09 01:09:49;;;;;;;;;;;;;;;16.92;45.42;98764.38;5083210;28;19919;-45
2022/01/09 01:12:14;;;;;;;;;;;;;;;16.92;45.47;98763.56;5082012;28;19920;-43
2022/01/09 01:14:40;;;;;;;;;;;;;;;16.92;45.33;98769.75;5082910;28;19923;-43
2022/01/09 01:17:05;;;;;;;;;;;;;;;16.91;45.51;98761.91;5083414;28;19955;-44
2022/01/09 01:19:30;;;;;;;;;;;;;;;16.92;45.50;98768.94;5082932;28;19916;-44
2022/01/09 01:21:56;;;;;;;;;;;;;;;16.91;45.41;98778.03;5082640;28;20526;-43
2022/01/09 01:24:22;;;;;;;;;;;;;;;16.91;45.34;98780.72;5083016;28;19923;-45
2022/01/09 01:26:47;;;;;;;;;;;;;;;16.89;45.22;98780.91;5082651;28;19935;-44
2022/01/09 01:29:12;;;;;;;;;;;;;;;16.88;45.45;98783.81;5082896;28;19935;-46
2022/01/09 01:31:37;;;;;;;;;;;;;;;16.87;45.36;98785.66;5082799;28;19913;-46
2022/01/09 01:34:02;;;;;;;;;;;;;;;16.87;45.38;98790.22;5082591;28;20334;-44
2022/01/09 01:36:27;;;;;;;;;;;;;;;16.87;45.53;98798.25;5082478;28;19940;-45
2022/01/09 01:38:53;;;;;;;;;;;;;;;16.86;45.49;98807.31;5082848;28;19920;-43
2022/01/09 01:41:18;;;;;;;;;;;;;;;16.86;45.41;98807.31;5082662;28;19912;-48
2022/01/09 01:43:43;;;;;;;;;;;;;;;16.85;45.60;98814.53;5082912;28;19912;-44
2022/01/09 01:46:08;;;;;;;;;;;;;;;16.85;45.34;98809.19;5082646;28;19920;-45
2022/01/09 01:48:33;;;;;;;;;;;;;;;16.85;45.56;98811.88;5082886;28;20278;-43
2022/01/09 01:50:58;;;;;;;;;;;;;;;16.83;45.43;98813.94;5082193;28;19944;-47
2022/01/09 01:53:24;;;;;;;;;;;;;;;16.83;45.49;98819.31;5047643;28;19924;-45
2022/01/09 01:55:53;;;;;;;;;;;;;;;16.83;45.35;98826.53;5082256;28;19921;-43
2022/01/09 01:58:19;;;;;;;;;;;;;;;16.83;45.49;98823.84;5082749;28;19916;-45
2022/01/09 02:00:44;;;;;;;;;;;;;;;16.82;45.56;98828.41;5064192;28;19939;-44
2022/01/09 02:03:10;;;;;;;;;;;;;;;16.81;45.33;98828.59;5082854;28;19931;-43
2022/01/09 02:05:36;;;;;;;;;;;;;;;16.81;45.43;98840.16;5081955;28;19916;-44
2022/01/09 02:08:02;;;;;;;;;;;;;;;16.81;45.40;98833.97;5082827;28;20262;-45
2022/01/09 02:10:27;;;;;;;;;;;;;;;16.80;45.57;98837.69;5082716;28;19960;-46
2022/01/09 02:12:55;;;;;;;;;;;;;;;16.79;45.53;98844.91;5064293;28;20320;-46
2022/01/09 02:15:43;;;;;;;;;;;;;;;16.80;45.40;98853.78;5064831;28;19924;-47
2022/01/09 02:18:09;;;;;;;;;;;;;;;16.79;45.47;98862.88;5089415;28;19938;-46
2022/01/09 02:20:35;;;;;;;;;;;;;;;16.78;45.46;98874.59;5081981;28;19993;-46
2022/01/09 02:23:00;;;;;;;;;;;;;;;16.78;45.46;98880.84;5082596;28;19912;-45
2022/01/09 02:25:26;;;;;;;;;;;;;;;16.77;45.40;98891.75;5085464;28;19919;-47
2022/01/09 02:27:51;;;;;;;;;;;;;;;16.78;45.44;98893.41;5056996;28;19973;-43
2022/01/09 02:30:16;;;;;;;;;;;;;;;16.77;45.46;98908.66;5066262;28;19913;-44
2022/01/09 02:32:41;;;;;;;;;;;;;;;16.76;45.39;98895.47;5085652;28;20331;-45
2022/01/09 02:35:07;;;;;;;;;;;;;;;16.76;45.46;98911.56;5085274;28;19916;-45
2022/01/09 02:37:32;;;;;;;;;;;;;;;16.74;45.38;98909.94;5086196;28;19919;-47
2022/01/09 02:39:57;;;;;;;;;;;;;;;16.76;45.58;98900.84;5084914;28;19912;-45
2022/01/09 02:42:25;;;;;;;;;;;;;;;16.74;45.37;98885.78;5085715;28;19939;-46
2022/01/09 02:44:50;;;;;;;;;;;;;;;16.73;45.47;98900.19;5085417;28;19948;-44
2022/01/09 02:47:16;;;;;;;;;;;;;;;16.72;45.43;98903.06;5085963;28;19920;-47
2022/01/09 02:49:46;;;;;;;;;;;;;;;16.72;45.55;98916.47;5085196;28;19962;-44
2022/01/09 02:52:24;;;;;;;;;;;;;;;16.70;45.53;98922.06;5085940;28;19956;-44
2022/01/09 02:55:11;;;;;;;;;;;;;;;16.70;45.38;98931.97;5086982;28;19952;-43
2022/01/09 02:57:37;;;;;;;;;;;;;;;16.70;45.46;98937.34;5085630;28;19916;-46
2022/01/09 03:00:03;;;;;;;;;;;;;;;16.69;45.47;98951.75;5067477;28;20523;-44
2022/01/09 03:02:28;;;;;;;;;;;;;;;16.68;45.57;98950.94;5084870;28;19923;-46
2022/01/09 03:04:53;;;;;;;;;;;;;;;16.68;45.38;98959.00;5084880;28;19916;-43
2022/01/09 03:07:18;;;;;;;;;;;;;;;16.68;45.51;98966.22;5081734;28;19920;-44
2022/01/09 03:09:43;;;;;;;;;;;;;;;16.69;45.45;98965.19;5078112;28;19938;-46
2022/01/09 03:12:11;;;;;;;;;;;;;;;16.69;45.45;98962.50;5084985;28;19929;-46
2022/01/09 03:14:36;;;;;;;;;;;;;;;16.68;45.53;98969.72;5085138;28;19923;-44
2022/01/09 03:17:01;;;;;;;;;;;;;;;16.68;45.39;98982.31;5085396;28;19944;-46
2022/01/09 03:19:26;;;;;;;;;;;;;;;16.67;45.44;98984.16;5085353;28;19912;-44
2022/01/09 03:21:51;;;;;;;;;;;;;;;16.68;45.44;98985.00;5066788;28;19912;-44
2022/01/09 03:24:17;;;;;;;;;;;;;;;16.68;45.45;98985.81;5085179;28;19912;-47
2022/01/09 03:26:43;;;;;;;;;;;;;;;16.68;45.57;98993.03;5084656;28;19922;-45
2022/01/09 03:29:08;;;;;;;;;;;;;;;16.68;45.46;99001.09;5085248;28;19913;-45
2022/01/09 03:31:33;;;;;;;;;;;;;;;16.67;45.53;99004.81;5084994;28;19913;-44
2022/01/09 03:33:58;;;;;;;;;;;;;;;16.68;45.46;99015.34;5084870;28;19978;-45
2022/01/09 03:36:23;;;;;;;;;;;;;;;16.67;45.38;99016.38;5083646;28;19912;-44
2022/01/09 03:38:48;;;;;;;;;;;;;;;16.67;45.41;99015.53;5085001;28;20011;-47
2022/01/09 03:41:13;;;;;;;;;;;;;;;16.68;45.51;99022.56;5084656;28;19913;-45
2022/01/09 03:43:39;;;;;;;;;;;;;;;16.68;45.35;99035.97;5084916;28;19987;-45
2022/01/09 03:46:04;;;;;;;;;;;;;;;16.67;45.47;99031.66;5084540;28;19919;-45
2022/01/09 03:48:30;;;;;;;;;;;;;;;16.68;45.39;99035.97;5084899;28;19919;-44
2022/01/09 03:50:55;;;;;;;;;;;;;;;16.68;45.45;99041.34;5084125;28;19912;-42
2022/01/09 03:53:20;;;;;;;;;;;;;;;16.68;45.33;99046.72;5084519;28;20365;-45
2022/01/09 03:55:45;;;;;;;;;;;;;;;16.67;45.41;99045.88;5084336;28;19970;-44
2022/01/09 03:58:10;;;;;;;;;;;;;;;16.68;45.38;99052.09;5084404;28;19920;-47
2022/01/09 04:00:35;;;;;;;;;;;;;;;16.67;45.40;99062.00;5084515;28;19912;-47
2022/01/09 04:03:01;;;;;;;;;;;;;;;16.68;45.35;99066.31;5084667;28;19912;-46
2022/01/09 04:05:26;;;;;;;;;;;;;;;16.68;45.16;99077.06;5083710;28;19913;-49
2022/01/09 04:07:51;;;;;;;;;;;;;;;16.68;45.26;99081.59;5076139;28;19923;-46
2022/01/09 04:10:19;;;;;;;;;;;;;;;16.68;45.37;99076.22;5073100;28;20326;-45
2022/01/09 04:12:50;;;;;;;;;;;;;;;16.67;45.21;99091.50;5084121;28;19983;-42
2022/01/09 04:15:15;;;;;;;;;;;;;;;16.67;45.32;99090.69;5087545;28;19916;-44
2022/01/09 04:17:51;;;;;;;;;;;;;;;16.67;45.35;99093.38;5084089;28;19955;-44
2022/01/09 04:20:17;;;;;;;;;;;;;;;16.66;45.18;99100.59;5083389;28;19935;-42
2022/01/09 04:22:42;;;;;;;;;;;;;;;16.66;45.22;99116.69;5083941;28;20023;-46
2022/01/09 04:25:08;;;;;;;;;;;;;;;16.66;45.31;99122.06;5065507;28;19955;-46
2022/01/09 04:27:33;;;;;;;;;;;;;;;16.65;45.28;99128.47;5083805;28;19917;-43
2022/01/09 04:29:58;;;;;;;;;;;;;;;16.66;45.19;99132.78;5083824;28;19916;-46
2022/01/09 04:32:24;;;;;;;;;;;;;;;16.65;45.32;99141.88;5083920;28;19912;-48
2022/01/09 04:34:50;;;;;;;;;;;;;;;16.66;45.20;99145.38;5083015;28;19924;-45
2022/01/09 04:37:15;;;;;;;;;;;;;;;16.64;45.27;99158.97;5084023;28;19919;-44
2022/01/09 04:39:41;;;;;;;;;;;;;;;16.64;45.19;99172.38;5083895;28;19920;-43
2022/01/09 04:42:06;;;;;;;;;;;;;;;16.64;45.19;99175.06;5083136;28;19923;-44
2022/01/09 04:44:31;;;;;;;;;;;;;;;16.65;45.06;99183.94;5083741;28;20543;-45
2022/01/09 04:47:03;;;;;;;;;;;;;;;16.65;45.20;99189.31;5083656;28;19912;-46
2022/01/09 04:49:35;;;;;;;;;;;;;;;16.64;45.10;99190.34;5083473;28;20585;-47
2022/01/09 04:52:02;;;;;;;;;;;;;;;16.64;45.10;99203.75;5082978;28;19916;-45
2022/01/09 04:54:27;;;;;;;;;;;;;;;16.64;45.12;99193.03;5083324;28;19917;-47
2022/01/09 04:56:53;;;;;;;;;;;;;;;16.64;45.21;99201.91;5082868;28;20471;-45
2022/01/09 04:59:18;;;;;;;;;;;;;;;16.62;45.06;99198.59;5083532;28;19980;-45
2022/01/09 05:01:43;;;;;;;;;;;;;;;16.63;45.15;99196.75;5083457;28;19912;-43
2022/01/09 05:04:08;;;;;;;;;;;;;;;16.62;45.15;99203.16;5083376;28;19920;-44
2022/01/09 05:06:33;;;;;;;;;;;;;;;16.63;45.08;99205.63;5082850;28;19912;-45
2022/01/09 05:08:58;;;;;;;;;;;;;;;16.61;45.07;99223.78;5064457;28;19919;-46
2022/01/09 05:11:24;;;;;;;;;;;;;;;16.60;45.03;99224.78;5062566;28;20408;-44
2022/01/09 05:13:49;;;;;;;;;;;;;;;16.60;45.19;99232.00;5083098;28;19955;-44
2022/01/09 05:16:16;;;;;;;;;;;;;;;16.61;45.14;99249.75;5082430;28;21265;-43
2022/01/09 05:19:05;;;;;;;;;;;;;;;16.60;44.94;99250.78;5083208;28;19912;-46
2022/01/09 05:21:26;;;;;;;;;;;;;;;16.60;45.21;99269.56;5082009;28;19913;-46
2022/01/09 05:23:51;;;;;;;;;;;;;;;16.59;45.00;99278.66;5083121;28;20003;-45
2022/01/09 05:26:16;;;;;;;;;;;;;;;16.59;45.12;99287.53;5082676;28;19913;-45
2022/01/09 05:28:42;;;;;;;;;;;;;;;16.58;45.12;99296.59;5083244;28;19940;-43
2022/01/09 05:31:07;;;;;;;;;;;;;;;16.58;45.04;99290.41;5082757;28;19913;-46
2022/01/09 05:33:32;;;;;;;;;;;;;;;16.58;45.00;99304.66;5083149;28;19912;-45
2022/01/09 05:35:57;;;;;;;;;;;;;;;16.58;44.97;99306.50;5082172;28;20019;-44
2022/01/09 05:38:22;;;;;;;;;;;;;;;16.58;45.04;99306.50;5083151;28;19913;-44
2022/01/09 05:40:47;;;;;;;;;;;;;;;16.58;44.94;99311.88;5082852;28;19988;-45
2022/01/09 05:43:13;;;;;;;;;;;;;;;16.58;45.10;99311.88;5082757;28;19936;-45
2022/01/09 05:45:39;;;;;;;;;;;;;;;16.58;44.99;99312.72;5082789;28;19912;-43
2022/01/09 05:48:04;;;;;;;;;;;;;;;16.57;45.07;99316.41;5082925;28;19912;-45
2022/01/09 05:50:29;;;;;;;;;;;;;;;16.58;45.11;99325.28;5082175;28;19923;-43
2022/01/09 05:52:54;;;;;;;;;;;;;;;16.58;45.11;99327.97;5082512;28;19988;-45
2022/01/09 05:55:20;;;;;;;;;;;;;;;16.57;45.07;99329.00;5082497;28;19947;-44
2022/01/09 05:57:45;;;;;;;;;;;;;;;16.57;45.10;99339.75;5081784;28;19959;-45
2022/01/09 06:00:11;;;;;;;;;;;;;;;16.58;45.10;99349.44;5067916;28;19920;-46
2022/01/09 06:02:36;;;;;;;;;;;;;;;16.57;45.01;99353.16;5066151;28;19917;-45
2022/01/09 06:05:01;;;;;;;;;;;;;;;16.58;45.01;99349.44;5070659;28;19927;-48
2022/01/09 06:07:26;;;;;;;;;;;;;;;16.58;44.97;99352.94;5077305;28;19913;-44
2022/01/09 06:09:52;;;;;;;;;;;;;;;16.59;45.07;99361.81;5085911;28;19919;-48
2022/01/09 06:12:17;;;;;;;;;;;;;;;16.59;45.11;99367.19;5078213;28;19921;-47
2022/01/09 06:14:42;;;;;;;;;;;;;;;16.59;45.02;99370.69;5048155;28;20074;-43
2022/01/09 06:17:07;;;;;;;;;;;;;;;16.60;45.12;99369.69;5084111;28;19916;-44
2022/01/09 06:19:32;;;;;;;;;;;;;;;16.60;45.01;99369.69;5069436;28;19964;-47
2022/01/09 06:21:57;;;;;;;;;;;;;;;16.61;45.05;99368.69;5073913;28;19921;-45
2022/01/09 06:24:22;;;;;;;;;;;;;;;16.62;45.08;99374.88;5071035;28;19920;-45
2022/01/09 06:26:48;;;;;;;;;;;;;;;16.64;45.04;99391.59;5031081;28;19913;-43
2022/01/09 06:29:13;;;;;;;;;;;;;;;16.63;45.11;99393.44;5066319;28;19912;-43
2022/01/09 06:31:38;;;;;;;;;;;;;;;16.64;45.03;99399.66;5079958;28;19917;-45
2022/01/09 06:34:03;;;;;;;;;;;;;;;16.64;45.15;99405.84;5086157;28;19958;-45
2022/01/09 06:36:28;;;;;;;;;;;;;;;16.65;45.27;99414.72;5085502;28;19951;-45
2022/01/09 06:38:54;;;;;;;;;;;;;;;16.65;45.18;99414.72;5075136;28;19916;-47
2022/01/09 06:41:19;;;;;;;;;;;;;;;16.65;45.36;99420.94;5080336;28;19916;-48
2022/01/09 06:43:44;;;;;;;;;;;;;;;16.67;45.14;99431.47;5085440;28;19915;-49
2022/01/09 06:46:09;;;;;;;;;;;;;;;16.67;45.31;99428.78;5085172;28;19940;-46
2022/01/09 06:48:35;;;;;;;;;;;;;;;16.68;45.30;99433.97;5085430;28;20401;-46
2022/01/09 06:51:00;;;;;;;;;;;;;;;16.69;45.31;99432.09;5083846;28;19913;-46
2022/01/09 06:53:25;;;;;;;;;;;;;;;16.69;45.42;99446.38;5084888;28;19913;-48
2022/01/09 06:55:50;;;;;;;;;;;;;;;16.69;45.37;99449.06;5084759;28;19927;-47
2022/01/09 06:58:18;;;;;;;;;;;;;;;16.70;45.27;99452.56;5084891;28;20585;-45
2022/01/09 07:00:43;;;;;;;;;;;;;;;16.71;45.36;99448.88;5084955;28;19935;-44
2022/01/09 07:03:08;;;;;;;;;;;;;;;16.71;45.31;99452.38;5083448;28;19921;-48
2022/01/09 07:05:34;;;;;;;;;;;;;;;16.72;45.43;99455.88;5064670;28;19920;-44
2022/01/09 07:07:59;;;;;;;;;;;;;;;16.73;45.56;99462.94;5067021;28;19917;-46
2022/01/09 07:10:24;;;;;;;;;;;;;;;16.73;45.49;99460.25;5072978;28;20133;-47
2022/01/09 07:12:49;;;;;;;;;;;;;;;16.74;45.47;99465.47;5074186;28;19921;-46
2022/01/09 07:15:14;;;;;;;;;;;;;;;16.76;45.53;99467.13;5069590;28;19923;-45
2022/01/09 07:17:39;;;;;;;;;;;;;;;16.76;45.41;99476.00;5088841;28;19917;-48
2022/01/09 07:20:05;;;;;;;;;;;;;;;16.77;45.53;99487.56;5082522;28;19926;-46
2022/01/09 07:22:30;;;;;;;;;;;;;;;16.80;45.45;99493.38;5084197;28;19912;-45
2022/01/09 07:24:55;;;;;;;;;;;;;;;16.83;45.50;99495.69;5066208;28;19924;-45
2022/01/09 07:27:20;;;;;;;;;;;;;;;16.87;45.27;99504.22;5084379;28;20397;-44
2022/01/09 07:29:46;;;;;;;;;;;;;;;16.90;45.31;99509.19;5081886;28;19920;-45
2022/01/09 07:32:11;;;;;;;;;;;;;;;16.93;45.20;99514.19;5084400;28;19938;-47
2022/01/09 07:34:36;;;;;;;;;;;;;;;16.95;45.19;99517.53;5074705;28;19916;-46
2022/01/09 07:37:01;;;;;;;;;;;;;;;16.99;45.19;99518.78;5064181;28;20276;-44
2022/01/09 07:39:28;;;;;;;;;;;;;;;17.00;45.15;99533.88;5055185;28;19939;-49
2022/01/09 07:41:53;;;;;;;;;;;;;;;17.03;45.21;99538.84;5079983;28;19916;-46
2022/01/09 07:44:18;;;;;;;;;;;;;;;17.06;45.30;99546.53;5083067;28;19982;-45
2022/01/09 07:46:44;;;;;;;;;;;;;;;17.09;45.39;99550.72;5081932;28;20376;-47
2022/01/09 07:49:09;;;;;;;;;;;;;;;17.11;45.39;99570.13;5081207;28;19938;-45
2022/01/09 07:51:34;;;;;;;;;;;;;;;17.11;45.21;99584.41;5079322;28;19974;-46
2022/01/09 07:53:59;;;;;;;;;;;;;;;17.14;45.31;99593.94;5078704;28;19916;-47
2022/01/09 07:56:24;;;;;;;;;;;;;;;17.16;45.22;99584.69;5074693;28;19912;-43
2022/01/09 07:58:49;;;;;;;;;;;;;;;17.18;45.22;99581.81;5044504;28;19963;-40
2022/01/09 08:01:14;;;;;;;;;;;;;;;17.20;45.25;99582.44;5080481;28;19917;-44
2022/01/09 08:03:40;;;;;;;;;;;;;;;17.23;45.21;99582.06;5079229;28;19912;-46
2022/01/09 08:06:05;;;;;;;;;;;;;;;17.24;45.34;99587.22;5081265;28;19920;-46
2022/01/09 08:08:30;;;;;;;;;;;;;;;17.27;45.24;99590.56;5082256;28;19913;-45
2022/01/09 08:10:55;;;;;;;;;;;;;;;17.29;45.03;99594.75;5064874;28;19956;-40
2022/01/09 08:13:20;;;;;;;;;;;;;;;17.31;44.98;99599.91;5081564;28;20429;-45
2022/01/09 08:15:46;;;;;;;;;;;;;;;17.33;45.22;99605.91;5063842;28;19916;-42
2022/01/09 08:18:11;;;;;;;;;;;;;;;17.34;45.05;99613.81;5064105;28;19920;-43
2022/01/09 08:20:36;;;;;;;;;;;;;;;17.37;45.03;99617.94;5061424;28;19920;-39
2022/01/09 08:23:01;;;;;;;;;;;;;;;17.39;45.09;99611.38;5081131;28;19912;-39
2022/01/09 08:25:27;;;;;;;;;;;;;;;17.41;44.89;99614.69;5076760;28;19996;-39
2022/01/09 08:27:52;;;;;;;;;;;;;;;17.44;45.01;99621.56;5081342;28;19913;-40
2022/01/09 08:30:18;;;;;;;;;;;;;;;17.46;45.06;99620.34;5064995;28;20428;-41
2022/01/09 08:32:44;;;;;;;;;;;;;;;17.49;44.96;99627.19;5080926;28;19953;-43
2022/01/09 08:35:09;;;;;;;;;;;;;;;17.51;44.89;99633.22;5063058;28;19927;-41
2022/01/09 08:37:36;;;;;;;;;;;;;;;17.52;44.86;99632.19;5060442;28;20546;-43
2022/01/09 08:40:01;;;;;;;;;;;;;;;17.55;44.80;99642.56;5079472;28;19920;-46
2022/01/09 08:42:26;;;;;;;;;;;;;;;17.57;44.74;99643.19;5080382;28;20005;-46
2022/01/09 08:44:51;;;;;;;;;;;;;;;17.60;44.72;99642.81;5081485;28;19912;-46
2022/01/09 08:47:16;;;;;;;;;;;;;;;17.55;44.79;99639.03;5081885;28;19913;-44
2022/01/09 08:49:42;;;;;;;;;;;;;;;17.66;44.56;99655.47;5062948;28;19920;-43
2022/01/09 08:52:07;;;;;;;;;;;;;;;17.70;44.66;99655.94;5081012;28;19917;-44
2022/01/09 08:54:32;;;;;;;;;;;;;;;17.74;44.53;99657.25;5080801;28;19965;-44
2022/01/09 08:56:58;;;;;;;;;;;;;;;17.77;44.39;99656.03;5080440;28;19971;-49
2022/01/09 08:59:23;;;;;;;;;;;;;;;17.79;44.50;99659.38;5076106;28;19999;-44
2022/01/09 09:01:48;;;;;;;;;;;;;;;17.80;44.56;99664.56;5075225;28;20598;-43
2022/01/09 09:04:14;;;;;;;;;;;;;;;17.82;44.55;99667.06;5061707;28;20666;-47
2022/01/09 09:06:39;;;;;;;;;;;;;;;17.83;44.45;99672.22;5080634;28;19939;-43
2022/01/09 09:09:04;;;;;;;;;;;;;;;17.85;44.22;99680.13;5080997;28;20491;-42
2022/01/09 09:11:29;;;;;;;;;;;;;;;17.86;44.39;99682.59;5079105;28;19947;-42
2022/01/09 09:13:55;;;;;;;;;;;;;;;17.88;44.24;99685.97;5080511;28;19920;-46
2022/01/09 09:16:20;;;;;;;;;;;;;;;17.91;44.24;99690.94;5081076;28;19939;-44
2022/01/09 09:18:47;;;;;;;;;;;;;;;17.95;44.37;99699.44;5080702;28;19919;-46
2022/01/09 09:21:12;;;;;;;;;;;;;;;17.97;44.20;99698.25;5079943;28;19931;-44
2022/01/09 09:23:37;;;;;;;;;;;;;;;18.01;43.98;99703.22;5080998;28;20095;-47
2022/01/09 09:26:02;;;;;;;;;;;;;;;18.02;44.07;99708.44;5080357;28;19948;-47
2022/01/09 09:28:27;;;;;;;;;;;;;;;18.03;44.01;99702.00;5062564;28;19912;-45
2022/01/09 09:30:53;;;;;;;;;;;;;;;18.05;44.03;99709.88;5060549;28;19916;-46
2022/01/09 09:33:18;;;;;;;;;;;;;;;18.07;43.94;99714.06;5079636;28;19912;-43
2022/01/09 09:35:43;;;;;;;;;;;;;;;18.09;43.87;99717.38;5081490;28;19977;-47
2022/01/09 09:38:08;;;;;;;;;;;;;;;18.13;43.79;99725.91;5083056;28;19916;-46
2022/01/09 09:40:33;;;;;;;;;;;;;;;18.15;43.75;99721.16;5064954;28;19912;-45
2022/01/09 09:42:59;;;;;;;;;;;;;;;18.17;43.55;99735.25;5062950;28;19948;-40
2022/01/09 09:45:24;;;;;;;;;;;;;;;18.18;43.40;99735.06;5073780;28;19931;-44
2022/01/09 09:47:50;;;;;;;;;;;;;;;18.20;43.42;99742.94;5080251;28;20491;-41
2022/01/09 09:50:15;;;;;;;;;;;;;;;18.23;43.60;99748.78;5071787;28;19979;-46
2022/01/09 09:52:44;;;;;;;;;;;;;;;18.28;43.44;99750.06;5082812;28;20409;-45
2022/01/09 09:55:09;;;;;;;;;;;;;;;18.30;43.33;99759.59;5082273;28;20032;-44
2022/01/09 09:57:34;;;;;;;;;;;;;;;18.31;43.23;99765.78;5082603;28;19912;-46
2022/01/09 10:00:05;;;;;;;;;;;;;;;18.29;43.25;99771.38;5082551;28;19916;-44
2022/01/09 10:03:00;;;;;;;;;;;;;;;18.26;43.31;99774.44;5082683;28;19913;-47
2022/01/09 10:05:35;;;;;;;;;;;;;;;18.24;43.20;99777.34;5052505;28;20311;-45
2022/01/09 10:08:05;;;;;;;;;;;;;;;18.24;43.34;99776.50;5072044;28;19912;-45
2022/01/09 10:10:31;;;;;;;;;;;;;;;18.24;43.27;99784.59;5082056;28;19927;-40
2022/01/09 10:13:17;;;;;;;;;;;;;;;18.26;43.18;99782.50;5054065;28;19920;-43
2022/01/09 10:15:49;;;;;;;;;;;;;;;18.27;43.52;99786.91;5078168;28;19935;-41
2022/01/09 10:18:34;;;;;;;;;;;;;;;18.27;43.38;99784.22;5058488;28;19995;-39
2022/01/09 10:21:26;;;;;;;;;;;;;;;18.29;43.56;99784.84;5078092;28;19950;-43
2022/01/09 10:24:13;;;;;;;;;;;;;;;18.30;43.61;99791.88;5075123;28;19916;-43
2022/01/09 10:26:39;;;;;;;;;;;;;;;18.33;43.61;99796.06;5075465;28;19919;-44
2022/01/09 10:29:06;;;;;;;;;;;;;;;18.35;43.40;99802.91;5076383;28;19912;-45
2022/01/09 10:31:31;;;;;;;;;;;;;;;18.40;43.21;99800.47;5068090;28;19913;-42
2022/01/09 10:33:57;;;;;;;;;;;;;;;18.44;43.08;99806.31;5055990;28;19916;-47
2022/01/09 10:36:32;;;;;;;;;;;;;;;18.26;43.13;99773.63;5070820;28;19923;-46
2022/01/09 10:39:01;;;;;;;;;;;;;;;18.51;42.98;99806.38;5073135;28;19980;-44
2022/01/09 10:41:26;;;;;;;;;;;;;;;18.52;42.99;99816.97;5071966;28;19912;-44
2022/01/09 10:43:51;;;;;;;;;;;;;;;18.55;42.73;99815.72;5066271;28;19942;-43
2022/01/09 10:46:17;;;;;;;;;;;;;;;18.58;42.79;99826.13;5074888;28;20019;-47
2022/01/09 10:48:42;;;;;;;;;;;;;;;18.59;42.54;99825.06;5085450;28;19920;-42
2022/01/09 10:51:08;;;;;;;;;;;;;;;18.59;42.50;99827.78;5075008;28;19916;-44
2022/01/09 10:53:37;;;;;;;;;;;;;;;18.61;42.52;99833.81;5076326;28;19974;-45
2022/01/09 10:56:02;;;;;;;;;;;;;;;18.63;42.43;99837.13;5065366;28;19968;-48
2022/01/09 10:58:27;;;;;;;;;;;;;;;18.67;42.60;99843.78;5065418;28;19920;-44
2022/01/09 11:01:25;;;;;;;;;;;;;;;18.67;42.40;99855.41;5065283;28;19913;-44
2022/01/09 11:03:52;;;;;;;;;;;;;;;18.65;42.50;99859.31;5038474;28;20629;-44
2022/01/09 11:06:17;;;;;;;;;;;;;;;18.60;42.59;99859.88;5084865;28;19919;-43
2022/01/09 11:08:43;;;;;;;;;;;;;;;18.55;42.59;99870.38;5074779;28;19920;-48
2022/01/09 11:11:14;;;;;;;;;;;;;;;18.50;42.64;99875.50;5082820;28;19916;-46
2022/01/09 11:13:41;;;;;;;;;;;;;;;18.46;42.80;99866.16;5079022;28;19967;-45
2022/01/09 11:18:50;;;;;;;;;;;;;;;18.36;43.14;99874.56;5081270;28;19935;-46
2022/01/09 11:21:15;;;;;;;;;;;;;;;18.36;43.17;99873.72;5063963;28;19984;-43
2022/01/09 11:23:49;;;;;;;;;;;;;;;18.34;43.22;99873.06;5077678;28;19913;-45
2022/01/09 11:26:14;;;;;;;;;;;;;;;18.32;43.08;99870.56;5080938;28;19920;-46
2022/01/09 11:28:40;;;;;;;;;;;;;;;18.31;43.41;99879.66;5074365;28;19912;-44
2022/01/09 11:31:10;;;;;;;;;;;;;;;18.30;43.34;99885.22;5078245;28;19939;-44
2022/01/09 11:33:54;;;;;;;;;;;;;;;18.29;43.23;99897.84;5076737;28;19919;-45
2022/01/09 11:36:24;;;;;;;;;;;;;;;18.28;43.43;99893.50;5081932;28;20253;-44
2022/01/09 11:38:55;;;;;;;;;;;;;;;18.28;43.26;99906.94;5077432;28;19946;-43
2022/01/09 11:41:24;;;;;;;;;;;;;;;18.28;43.46;99900.75;5048121;28;19944;-47
2022/01/09 11:43:50;;;;;;;;;;;;;;;18.30;43.30;99909.44;5075685;28;19976;-44
2022/01/09 11:46:16;;;;;;;;;;;;;;;18.33;43.42;99912.59;5077857;28;19912;-44
2022/01/09 11:48:43;;;;;;;;;;;;;;;18.34;43.25;99918.81;5080062;28;19973;-43
2022/01/09 11:51:09;;;;;;;;;;;;;;;18.34;43.29;99930.41;5077991;28;19920;-44
2022/01/09 11:53:54;;;;;;;;;;;;;;;18.33;43.21;99923.34;5081474;28;19924;-45
2022/01/09 11:56:39;;;;;;;;;;;;;;;18.33;43.61;99926.03;5078419;28;20016;-42
2022/01/09 11:59:20;;;;;;;;;;;;;;;18.32;43.41;99921.69;5082877;28;19958;-44
2022/01/09 12:01:48;;;;;;;;;;;;;;;18.30;43.51;99915.66;5084187;28;19923;-44
2022/01/09 12:04:38;;;;;;;;;;;;;;;18.30;43.32;99920.19;5066468;28;20080;-46
2022/01/09 12:07:11;;;;;;;;;;;;;;;18.30;43.50;99931.78;5071197;28;19970;-45
2022/01/09 12:09:43;;;;;;;;;;;;;;;18.31;43.55;99933.50;5064276;28;19917;-44
2022/01/09 12:12:09;;;;;;;;;;;;;;;18.31;43.48;99936.19;5072190;28;19970;-45
2022/01/09 12:17:42;;;;;;;;;;;;;;;18.33;43.55;99938.66;5071086;28;19912;-45
2022/01/09 12:20:13;;;;;;;;;;;;;;;18.32;43.65;99935.16;5083359;28;20027;-43
2022/01/09 12:22:38;;;;;;;;;;;;;;;18.36;43.67;99932.91;5084093;28;19912;-43
2022/01/09 12:25:04;;;;;;;;;;;;;;;18.36;43.70;99935.63;5083795;28;19912;-42
2022/01/09 12:27:35;;;;;;;;;;;;;;;18.38;43.47;99941.63;5083407;28;20748;-43
2022/01/09 12:30:00;;;;;;;;;;;;;;;18.37;43.56;99943.47;5083750;28;19916;-43
2022/01/09 12:32:38;;;;;;;;;;;;;;;18.39;43.61;99946.84;5065805;28;19912;-46
2022/01/09 12:35:16;;;;;;;;;;;;;;;18.41;43.61;99942.09;5082813;28;19924;-43
2022/01/09 12:37:48;;;;;;;;;;;;;;;18.45;43.51;99948.75;5083542;28;19912;-45
2022/01/09 12:40:14;;;;;;;;;;;;;;;18.47;43.52;99954.78;5083421;28;19913;-44
2022/01/09 12:42:43;;;;;;;;;;;;;;;18.47;43.44;99960.16;5083288;28;19917;-45
2022/01/09 12:45:08;;;;;;;;;;;;;;;18.48;43.44;99955.63;5083582;28;19919;-46
2022/01/09 12:47:40;;;;;;;;;;;;;;;18.47;43.43;99960.16;5083547;28;19940;-43
2022/01/09 12:50:06;;;;;;;;;;;;;;;18.46;43.45;99947.72;5082929;28;20334;-43
2022/01/09 12:52:31;;;;;;;;;;;;;;;18.46;43.46;99957.66;5083685;28;19919;-43